Time;durP1;ratioP1;P1;durP2;ratioP2;P2;SDS_P1;SDS_P2;PMS_P1;PMS_P2;Temp;Humidity;BMP_temperature;BMP_pressure;BME280_temperature;BME280_humidity;BME280_pressure;Samples;Min_cycle;Max_cycle;Signal;HPM_P1;HPM_P2
2021/01/24 00:01:20;;;;;;;5.43;4.93;;;2.20;99.90;;;;;;5032265;28;20113;-73
2021/01/24 00:03:46;;;;;;;5.97;5.38;;;2.20;99.90;;;;;;5031771;28;20036;-70
2021/01/24 00:06:11;;;;;;;5.88;5.28;;;2.30;99.90;;;;;;5031092;28;20040;-72
2021/01/24 00:08:37;;;;;;;6.32;5.32;;;2.30;99.90;;;;;;5032399;28;20048;-69
2021/01/24 00:11:03;;;;;;;6.28;5.60;;;2.30;99.90;;;;;;5032200;28;20502;-71
2021/01/24 00:13:28;;;;;;;6.28;5.35;;;2.20;99.90;;;;;;5049011;28;20095;-70
2021/01/24 00:15:54;;;;;;;5.75;5.22;;;2.20;99.90;;;;;;5052276;28;20095;-71
2021/01/24 00:18:20;;;;;;;6.82;5.70;;;2.30;99.90;;;;;;5051778;28;20548;-70
2021/01/24 00:20:45;;;;;;;6.35;5.45;;;2.30;99.90;;;;;;5051368;28;20108;-70
2021/01/24 00:23:11;;;;;;;6.40;5.72;;;2.20;99.90;;;;;;5051343;28;20398;-70
2021/01/24 00:25:37;;;;;;;7.78;7.00;;;2.20;99.90;;;;;;5050805;28;20396;-71
2021/01/24 00:28:02;;;;;;;7.65;6.22;;;2.10;99.90;;;;;;5050257;28;20503;-70
2021/01/24 00:30:28;;;;;;;9.32;6.20;;;2.10;99.90;;;;;;5051934;28;20033;-70
2021/01/24 00:32:54;;;;;;;9.05;7.22;;;2.10;99.90;;;;;;5051230;28;20035;-71
2021/01/24 00:35:19;;;;;;;7.88;6.15;;;2.10;99.90;;;;;;5051541;28;20045;-70
2021/01/24 00:37:45;;;;;;;8.75;7.00;;;2.00;99.90;;;;;;5052543;28;20021;-71
2021/01/24 00:40:11;;;;;;;7.57;6.28;;;2.00;99.90;;;;;;5051578;28;20052;-69
2021/01/24 00:42:37;;;;;;;7.28;6.15;;;2.00;99.90;;;;;;5050862;28;20024;-73
2021/01/24 00:45:08;;;;;;;7.97;6.35;;;1.90;99.90;;;;;;5053238;28;20104;-71
2021/01/24 00:47:34;;;;;;;9.05;7.07;;;1.90;99.90;;;;;;5054745;28;20463;-70
2021/01/24 00:50:02;;;;;;;9.45;7.07;;;1.80;99.90;;;;;;5055509;28;20057;-71
2021/01/24 00:52:31;;;;;;;9.60;7.38;;;1.80;99.90;;;;;;5056965;28;20096;-71
2021/01/24 00:54:56;;;;;;;10.80;8.10;;;1.80;99.90;;;;;;5061628;28;20123;-69
2021/01/24 00:57:22;;;;;;;10.15;7.82;;;1.80;99.90;;;;;;5074894;28;20009;-73
2021/01/24 00:59:48;;;;;;;11.20;8.75;;;1.80;99.90;;;;;;5075230;28;20033;-73
2021/01/24 01:02:13;;;;;;;11.70;8.55;;;1.90;99.90;;;;;;5057647;28;20043;-71
2021/01/24 01:04:39;;;;;;;10.93;8.27;;;1.90;99.90;;;;;;5054486;28;20126;-72
2021/01/24 01:07:05;;;;;;;12.38;8.40;;;2.00;99.90;;;;;;5056073;28;20111;-70
2021/01/24 01:09:30;;;;;;;9.18;7.45;;;2.10;99.90;;;;;;5055828;28;20060;-72
2021/01/24 01:11:56;;;;;;;10.48;8.07;;;2.20;99.90;;;;;;5056055;28;20032;-73
2021/01/24 01:14:22;;;;;;;9.15;7.25;;;2.30;99.90;;;;;;5054645;28;20036;-70
2021/01/24 01:16:47;;;;;;;6.60;4.65;;;2.40;99.90;;;;;;5055352;28;20040;-71
2021/01/24 01:19:13;;;;;;;3.83;3.45;;;2.40;99.90;;;;;;5055202;28;20025;-71
2021/01/24 01:21:39;;;;;;;2.85;2.53;;;2.50;99.90;;;;;;5054726;28;20113;-71
2021/01/24 01:24:05;;;;;;;2.63;2.42;;;2.50;99.90;;;;;;5054071;28;20483;-71
2021/01/24 01:26:31;;;;;;;1.70;1.60;;;2.60;99.90;;;;;;5054599;28;20040;-71
2021/01/24 01:28:57;;;;;;;1.98;1.88;;;2.50;99.90;;;;;;5054860;28;20383;-70
2021/01/24 01:31:23;;;;;;;2.08;1.90;;;2.50;99.90;;;;;;5054119;28;20033;-71
2021/01/24 01:33:48;;;;;;;2.05;1.88;;;2.40;99.90;;;;;;5053722;28;20025;-71
2021/01/24 01:36:14;;;;;;;1.77;1.67;;;2.30;99.90;;;;;;5052758;28;20553;-70
2021/01/24 01:38:39;;;;;;;2.20;2.00;;;2.30;99.90;;;;;;5054314;28;20494;-73
2021/01/24 01:41:05;;;;;;;2.22;1.98;;;2.30;99.90;;;;;;5054408;28;20387;-72
2021/01/24 01:43:31;;;;;;;2.00;1.90;;;2.30;99.90;;;;;;5053536;28;20017;-71
2021/01/24 01:45:56;;;;;;;2.28;1.92;;;2.30;99.90;;;;;;5053978;28;20450;-71
2021/01/24 01:48:22;;;;;;;2.78;2.17;;;2.40;99.90;;;;;;5054401;28;20017;-71
2021/01/24 01:50:48;;;;;;;2.10;1.90;;;2.50;99.90;;;;;;5053993;28;20377;-71
2021/01/24 01:53:14;;;;;;;3.03;2.08;;;2.40;99.90;;;;;;5053948;28;20028;-71
2021/01/24 01:55:40;;;;;;;2.28;2.08;;;2.40;99.90;;;;;;5055098;28;20021;-72
2021/01/24 01:58:05;;;;;;;2.25;2.10;;;2.40;99.90;;;;;;5053356;28;20032;-72
2021/01/24 02:00:31;;;;;;;3.22;2.10;;;2.50;99.90;;;;;;5053569;28;20115;-73
2021/01/24 02:03:07;;;;;;;2.25;2.15;;;2.50;99.90;;;;;;5065324;28;20028;-72
2021/01/24 02:06:06;;;;;;;2.65;2.00;;;2.50;99.90;;;;;;5076745;28;20037;-71
2021/01/24 02:08:56;;;;;;;2.30;2.10;;;2.70;99.90;;;;;;5072043;28;20029;-72
2021/01/24 02:11:43;;;;;;;2.42;1.50;;;2.70;99.90;;;;;;5069368;28;20044;-72
2021/01/24 02:14:38;;;;;;;1.70;1.60;;;2.70;99.90;;;;;;5065470;28;20025;-71
2021/01/24 02:17:07;;;;;;;3.53;1.75;;;2.70;99.90;;;;;;5069240;23;20017;-65
2021/01/24 02:19:47;;;;;;;1.70;1.60;;;2.80;99.90;;;;;;5094243;28;20032;-69
2021/01/24 02:22:13;;;;;;;1.50;1.40;;;2.70;99.90;;;;;;5091316;28;20067;-68
2021/01/24 02:24:51;;;;;;;1.30;1.20;;;2.70;99.90;;;;;;5078000;28;20032;-68
2021/01/24 02:27:34;;;;;;;1.20;1.10;;;2.60;99.90;;;;;;5081355;28;20021;-68
2021/01/24 02:30:02;;;;;;;;;;;2.60;99.90;;;;;;5073948;28;20032;-68
2021/01/24 02:32:29;;;;;;;0.80;0.73;;;2.50;99.90;;;;;;5073197;28;20312;-68
2021/01/24 02:34:56;;;;;;;1.02;0.80;;;2.50;99.90;;;;;;5072469;28;20021;-67
2021/01/24 02:37:23;;;;;;;1.13;1.13;;;2.40;99.90;;;;;;5073152;28;20070;-67
2021/01/24 02:39:50;;;;;;;0.68;0.68;;;2.40;99.90;;;;;;5073264;28;20037;-68
2021/01/24 02:42:16;;;;;;;0.98;0.60;;;2.40;99.90;;;;;;5057752;28;20036;-68
2021/01/24 02:44:43;;;;;;;0.70;0.50;;;2.50;99.90;;;;;;5032406;28;20026;-67
2021/01/24 02:47:10;;;;;;;0.55;0.55;;;2.40;99.90;;;;;;5033111;28;20037;-68
2021/01/24 02:49:36;;;;;;;0.32;0.32;;;2.40;99.90;;;;;;5032796;28;20093;-67
2021/01/24 02:52:04;;;;;;;0.68;0.63;;;2.50;99.90;;;;;;5033516;28;20071;-67
2021/01/24 02:54:30;;;;;;;0.40;0.40;;;2.50;99.90;;;;;;5032524;28;20029;-67
2021/01/24 02:56:56;;;;;;;0.50;0.50;;;2.50;99.90;;;;;;5033125;28;20025;-68
2021/01/24 02:59:22;;;;;;;0.40;0.40;;;2.40;99.90;;;;;;5032882;28;20021;-69
2021/01/24 03:01:48;;;;;;;0.50;0.50;;;2.40;99.90;;;;;;5032856;28;20021;-68
2021/01/24 03:04:14;;;;;;;0.45;0.45;;;2.40;99.90;;;;;;5031843;28;20086;-68
2021/01/24 03:06:39;;;;;;;0.60;0.60;;;2.40;99.90;;;;;;5032679;28;20029;-68
2021/01/24 03:09:05;;;;;;;1.88;0.88;;;2.30;99.90;;;;;;5032356;28;20068;-67
2021/01/24 03:11:33;;;;;;;0.75;0.73;;;2.10;99.90;;;;;;5031714;28;20076;-67
2021/01/24 03:14:08;;;;;;;1.13;1.10;;;1.90;99.90;;;;;;5030616;28;20021;-67
2021/01/24 03:16:35;;;;;;;0.90;0.90;;;1.70;99.90;;;;;;5032045;28;20151;-68
2021/01/24 03:19:03;;;;;;;0.88;0.88;;;1.60;99.90;;;;;;5032004;28;20500;-67
2021/01/24 03:21:31;;;;;;;1.25;1.15;;;1.60;99.90;;;;;;5032231;28;20053;-67
2021/01/24 03:23:57;;;;;;;1.42;1.33;;;1.60;99.90;;;;;;5031728;28;20029;-67
2021/01/24 03:26:24;;;;;;;1.98;1.30;;;1.50;99.90;;;;;;5032292;28;20060;-68
2021/01/24 03:28:49;;;;;;;1.42;1.33;;;1.50;99.90;;;;;;5032182;28;20034;-69
2021/01/24 03:31:17;;;;;;;1.80;1.42;;;1.50;99.90;;;;;;5032405;28;20017;-68
2021/01/24 03:33:43;;;;;;;1.70;1.33;;;1.50;99.90;;;;;;5031453;28;20022;-69
2021/01/24 03:36:09;;;;;;;1.70;1.60;;;1.50;99.90;;;;;;5031960;28;20480;-69
2021/01/24 03:38:34;;;;;;;1.80;1.70;;;1.50;99.90;;;;;;5032052;28;20040;-68
2021/01/24 03:41:00;;;;;;;1.83;1.73;;;1.50;99.90;;;;;;5031675;28;20037;-68
2021/01/24 03:43:26;;;;;;;3.38;1.90;;;1.50;99.90;;;;;;5031330;28;20442;-68
2021/01/24 03:45:52;;;;;;;1.85;1.75;;;1.50;99.90;;;;;;5030575;28;20026;-68
2021/01/24 03:48:17;;;;;;;1.80;1.70;;;1.60;99.90;;;;;;5031682;28;20060;-68
2021/01/24 03:50:43;;;;;;;1.83;1.65;;;1.50;99.90;;;;;;5031657;28;20049;-67
2021/01/24 03:53:09;;;;;;;4.93;1.92;;;1.50;99.90;;;;;;5031226;28;20059;-68
2021/01/24 03:55:34;;;;;;;3.17;2.38;;;1.40;99.90;;;;;;5031709;28;20025;-69
2021/01/24 03:58:00;;;;;;;2.30;2.20;;;1.50;99.90;;;;;;5031662;28;20068;-69
2021/01/24 04:00:26;;;;;;;3.97;2.70;;;1.40;99.90;;;;;;5031682;28;20025;-68
2021/01/24 04:02:51;;;;;;;2.47;2.28;;;1.40;99.90;;;;;;5031081;28;20116;-67
2021/01/24 04:05:17;;;;;;;2.30;2.03;;;1.40;99.90;;;;;;5031032;28;20029;-68
2021/01/24 04:07:43;;;;;;;3.15;2.42;;;1.40;99.90;;;;;;5031654;28;20029;-68
2021/01/24 04:10:10;;;;;;;3.25;2.40;;;1.50;99.90;;;;;;5031474;28;20037;-67
2021/01/24 04:12:36;;;;;;;4.90;2.42;;;1.60;99.90;;;;;;5031367;28;20100;-68
2021/01/24 04:15:03;;;;;;;3.17;2.88;;;1.70;99.90;;;;;;5030741;28;20180;-68
2021/01/24 04:17:29;;;;;;;3.67;2.35;;;1.60;99.90;;;;;;5031431;28;20545;-69
2021/01/24 04:19:54;;;;;;;3.25;2.85;;;1.60;99.90;;;;;;5031328;28;20025;-69
2021/01/24 04:22:20;;;;;;;3.20;2.90;;;1.50;99.90;;;;;;5031512;28;20502;-68
2021/01/24 04:24:46;;;;;;;3.72;2.70;;;1.50;99.90;;;;;;5030638;28;20029;-69
2021/01/24 04:27:11;;;;;;;3.33;2.65;;;1.40;99.90;;;;;;5030001;28;20029;-68
2021/01/24 04:29:37;;;;;;;3.22;2.67;;;1.50;99.90;;;;;;5031328;28;20037;-68
2021/01/24 04:32:03;;;;;;;2.40;2.20;;;1.50;99.90;;;;;;5031483;28;20392;-68
2021/01/24 04:34:28;;;;;;;2.85;2.30;;;1.60;99.90;;;;;;5030273;28;20032;-68
2021/01/24 04:36:54;;;;;;;3.45;2.95;;;1.60;99.90;;;;;;5031211;28;20049;-68
2021/01/24 04:39:19;;;;;;;3.45;2.92;;;1.70;99.90;;;;;;5031318;28;20038;-68
2021/01/24 04:41:48;;;;;;;3.40;3.10;;;1.70;99.90;;;;;;5031245;28;20030;-69
2021/01/24 04:44:14;;;;;;;4.97;2.53;;;1.60;99.90;;;;;;5030598;28;20017;-68
2021/01/24 04:46:40;;;;;;;3.95;3.03;;;1.50;99.90;;;;;;5031192;28;20025;-68
2021/01/24 04:49:06;;;;;;;5.50;3.38;;;1.40;99.90;;;;;;5030716;28;20036;-68
2021/01/24 04:51:32;;;;;;;4.43;3.50;;;1.20;99.90;;;;;;5031148;28;20033;-67
2021/01/24 04:53:59;;;;;;;4.55;3.80;;;1.20;99.90;;;;;;5030698;28;20032;-68
2021/01/24 04:56:25;;;;;;;6.43;3.90;;;1.20;99.90;;;;;;5033082;28;20026;-68
2021/01/24 04:58:54;;;;;;;3.97;3.50;;;1.00;99.90;;;;;;5031156;28;20109;-68
2021/01/24 05:01:24;;;;;;;5.60;4.10;;;0.90;99.90;;;;;;5030890;28;20074;-67
2021/01/24 05:03:49;;;;;;;8.25;4.70;;;0.90;99.90;;;;;;5030426;28;20025;-68
2021/01/24 05:06:15;;;;;;;6.38;4.68;;;1.00;99.90;;;;;;5043152;28;20191;-68
2021/01/24 05:08:45;;;;;;;14.32;5.82;;;0.60;99.90;;;;;;5037959;28;20095;-68
2021/01/24 05:11:11;;;;;;;5.60;4.95;;;0.60;99.90;;;;;;5031548;28;20025;-67
2021/01/24 05:13:37;;;;;;;11.00;5.50;;;0.50;99.90;;;;;;5030697;28;20022;-67
2021/01/24 05:16:05;;;;;;;6.15;4.88;;;0.50;99.90;;;;;;5032115;28;20092;-67
2021/01/24 05:18:31;;;;;;;9.68;5.68;;;0.50;99.90;;;;;;5030828;28;20075;-68
2021/01/24 05:20:58;;;;;;;7.63;4.97;;;0.50;99.90;;;;;;5030661;28;20026;-68
2021/01/24 05:23:25;;;;;;;7.72;5.25;;;0.60;99.90;;;;;;5030289;28;20033;-68
2021/01/24 05:25:55;;;;;;;6.13;5.00;;;0.70;99.90;;;;;;5031084;28;20025;-68
2021/01/24 05:28:26;;;;;;;6.68;5.50;;;0.70;99.90;;;;;;5031427;28;20398;-68
2021/01/24 05:31:04;;;;;;;7.05;5.07;;;0.70;99.90;;;;;;5030489;28;20028;-68
2021/01/24 05:33:30;;;;;;;6.72;5.45;;;0.70;99.90;;;;;;5030183;28;20387;-69
2021/01/24 05:35:55;;;;;;;6.25;4.80;;;0.60;99.90;;;;;;5030707;28;20017;-68
2021/01/24 05:38:32;;;;;;;8.50;5.22;;;0.50;99.90;;;;;;5034442;28;20418;-68
2021/01/24 05:41:09;;;;;;;9.25;6.18;;;0.40;99.90;;;;;;5034502;28;20042;-67
2021/01/24 05:43:36;;;;;;;8.80;5.60;;;0.30;99.90;;;;;;5033564;28;20030;-68
2021/01/24 05:46:03;;;;;;;8.93;5.95;;;0.30;99.90;;;;;;5034293;28;20487;-68
2021/01/24 05:48:29;;;;;;;8.95;5.57;;;0.20;99.90;;;;;;5034237;28;20090;-68
2021/01/24 05:50:55;;;;;;;9.85;5.50;;;0.20;99.90;;;;;;5033865;28;20112;-68
2021/01/24 05:53:23;;;;;;;7.05;5.20;;;0.10;99.90;;;;;;5033691;28;20028;-68
2021/01/24 05:55:48;;;;;;;7.32;5.57;;;0.10;99.90;;;;;;5034078;28;20427;-68
2021/01/24 05:58:16;;;;;;;6.80;5.78;;;0.10;99.90;;;;;;5034132;28;20036;-68
2021/01/24 06:00:42;;;;;;;9.43;5.15;;;0.00;99.90;;;;;;5034231;28;20053;-67
2021/01/24 06:03:09;;;;;;;8.07;6.00;;;0.10;99.90;;;;;;5033399;28;20387;-67
2021/01/24 06:05:35;;;;;;;6.85;5.10;;;0.00;99.90;;;;;;5033628;28;20108;-67
2021/01/24 06:08:01;;;;;;;6.00;4.55;;;0.00;99.90;;;;;;5033948;28;20132;-67
2021/01/24 06:10:26;;;;;;;4.65;3.20;;;0.10;99.90;;;;;;5033666;28;20148;-66
2021/01/24 06:12:53;;;;;;;5.82;4.13;;;0.30;99.90;;;;;;5033093;28;20025;-67
2021/01/24 06:15:23;;;;;;;5.43;3.50;;;0.30;99.90;;;;;;5032465;28;20028;-69
2021/01/24 06:17:51;;;;;;;7.32;3.40;;;0.40;99.90;;;;;;5033580;28;20063;-68
2021/01/24 06:20:20;;;;;;;5.78;3.75;;;0.40;99.90;;;;;;5033612;28;20044;-68
2021/01/24 06:23:07;;;;;;;5.13;3.83;;;0.30;99.90;;;;;;5032822;28;20022;-67
2021/01/24 06:25:38;;;;;;;4.07;3.22;;;0.30;99.90;;;;;;5031438;28;20017;-68
2021/01/24 06:28:20;;;;;;;6.05;3.47;;;0.30;99.90;;;;;;5032978;28;20083;-68
2021/01/24 06:30:47;;;;;;;4.93;3.10;;;0.30;99.90;;;;;;5033506;28;20029;-67
2021/01/24 06:33:21;;;;;;;5.55;2.90;;;0.30;99.90;;;;;;5032779;28;20022;-68
2021/01/24 06:35:49;;;;;;;5.53;3.30;;;0.40;99.90;;;;;;5033224;28;20017;-68
2021/01/24 06:38:34;;;;;;;4.60;2.90;;;0.40;99.90;;;;;;5032882;28;20017;-68
2021/01/24 06:41:01;;;;;;;5.35;3.45;;;0.40;99.90;;;;;;5036625;28;20052;-69
2021/01/24 06:43:46;;;;;;;3.10;2.80;;;0.40;99.90;;;;;;5034540;28;20396;-68
2021/01/24 06:46:20;;;;;;;3.20;2.90;;;0.40;99.90;;;;;;5033187;28;20029;-67
2021/01/24 06:48:48;;;;;;;4.70;2.92;;;0.40;99.90;;;;;;5030216;28;20092;-68
2021/01/24 06:51:41;;;;;;;4.07;3.00;;;0.50;99.90;;;;;;5041057;28;20052;-67
2021/01/24 06:54:07;;;;;;;;;;;0.50;99.90;;;;;;5051628;28;20025;-68
2021/01/24 06:56:51;;;;;;;7.25;3.40;;;0.60;99.90;;;;;;5052198;28;19982;-68
2021/01/24 06:59:28;;;;;;;5.63;3.22;;;0.70;99.90;;;;;;5052433;28;20037;-67
2021/01/24 07:02:34;;;;;;;5.20;3.03;;;0.80;99.90;;;;;;5042798;28;20032;-66
2021/01/24 07:05:22;;;;;;;4.72;2.75;;;0.90;99.90;;;;;;5030431;28;20029;-68
2021/01/24 07:07:49;;;;;;;4.70;3.85;;;0.90;99.90;;;;;;5043410;28;20050;-68
2021/01/24 07:10:39;;;;;;;3.28;2.85;;;0.90;99.90;;;;;;5072256;28;20020;-68
2021/01/24 07:13:31;;;;;;;7.80;3.72;;;0.80;99.90;;;;;;5041139;28;20123;-67
2021/01/24 07:16:02;;;;;;;4.22;3.42;;;0.90;99.90;;;;;;5032336;28;20443;-67
2021/01/24 07:18:43;;;;;;;4.57;3.95;;;0.90;99.90;;;;;;5032134;28;20044;-67
2021/01/24 07:21:11;;;;;;;8.05;3.88;;;0.90;99.90;;;;;;5031422;28;20029;-67
2021/01/24 07:23:40;;;;;;;5.25;4.70;;;0.90;99.90;;;;;;5031515;28;20396;-67
2021/01/24 07:26:07;;;;;;;8.38;4.50;;;1.00;99.90;;;;;;5032562;28;20384;-68
2021/01/24 07:28:34;;;;;;;6.40;3.83;;;0.90;99.90;;;;;;5032445;28;20439;-69
2021/01/24 07:31:04;;;;;;;5.00;3.50;;;0.90;99.90;;;;;;5032553;28;20112;-68
2021/01/24 07:33:30;;;;;;;4.15;3.55;;;0.90;99.90;;;;;;5034455;28;20041;-69
2021/01/24 07:35:58;;;;;;;5.22;3.53;;;1.00;99.90;;;;;;5033599;28;20021;-69
2021/01/24 07:38:25;;;;;;;4.05;3.58;;;1.10;99.90;;;;;;5031903;28;20029;-69
2021/01/24 07:40:56;;;;;;;5.13;4.13;;;1.10;99.90;;;;;;5047301;28;20502;-68
2021/01/24 07:43:23;;;;;;;5.32;4.15;;;1.10;99.90;;;;;;5033410;28;20384;-68
2021/01/24 07:45:49;;;;;;;5.38;3.70;;;1.10;99.90;;;;;;5069647;28;20043;-69
2021/01/24 07:48:14;;;;;;;6.38;3.92;;;1.10;99.90;;;;;;5077412;28;20032;-69
2021/01/24 07:50:40;;;;;;;6.35;4.03;;;1.20;99.90;;;;;;5081292;28;20028;-69
2021/01/24 07:53:07;;;;;;;5.68;4.13;;;1.10;99.90;;;;;;5071880;28;20080;-69
2021/01/24 07:55:35;;;;;;;6.70;4.97;;;1.10;99.90;;;;;;5072115;28;20051;-69
2021/01/24 07:58:01;;;;;;;6.28;4.22;;;1.10;99.90;;;;;;5072178;28;20013;-69
2021/01/24 08:00:26;;;;;;;6.72;4.10;;;1.10;99.90;;;;;;5072875;28;20371;-69
2021/01/24 08:02:52;;;;;;;7.97;4.50;;;1.00;99.90;;;;;;5037832;28;20607;-71
2021/01/24 08:05:22;;;;;;;11.95;5.90;;;1.00;99.90;;;;;;5031538;28;20033;-74
2021/01/24 08:07:49;;;;;;;11.13;6.57;;;1.40;99.90;;;;;;5033588;28;20041;-76
2021/01/24 08:10:15;;;;;;;6.40;4.20;;;1.80;99.90;;;;;;5032897;28;20079;-76
2021/01/24 08:12:41;;;;;;;24.38;15.88;;;1.90;99.90;;;;;;5033807;28;20017;-77
2021/01/24 08:15:07;;;;;;;6.55;4.55;;;1.80;99.90;;;;;;5034697;28;20021;-78
2021/01/24 08:17:34;;;;;;;8.68;5.32;;;1.80;99.90;;;;;;5035700;28;20056;-77
2021/01/24 08:20:01;;;;;;;5.00;3.78;;;2.90;99.90;;;;;;5031853;28;20033;-66
2021/01/24 08:22:27;;;;;;;4.88;2.88;;;3.20;99.90;;;;;;5031873;28;20036;-68
2021/01/24 08:24:54;;;;;;;4.40;3.10;;;2.90;99.90;;;;;;5031259;28;20029;-66
2021/01/24 08:27:20;;;;;;;5.80;3.13;;;3.60;99.90;;;;;;5036786;28;20437;-66
2021/01/24 08:29:46;;;;;;;4.10;2.78;;;5.10;99.90;;;;;;5051396;28;20479;-66
2021/01/24 08:32:14;;;;;;;4.55;2.40;;;7.20;99.90;;;;;;5039888;28;20091;-67
2021/01/24 08:34:41;;;;;;;3.65;2.80;;;9.70;99.90;;;;;;5030310;28;20034;-68
2021/01/24 08:37:06;;;;;;;3.25;2.42;;;11.20;96.10;;;;;;5030220;28;20411;-67
2021/01/24 08:39:33;;;;;;;4.22;2.33;;;11.30;93.80;;;;;;5031133;28;20029;-68
2021/01/24 08:41:59;;;;;;;4.00;1.88;;;8.80;95.10;;;;;;5031637;28;20437;-67
2021/01/24 08:44:24;;;;;;;3.83;2.15;;;6.30;99.90;;;;;;5042768;28;20099;-68
2021/01/24 08:46:52;;;;;;;4.88;1.83;;;5.60;99.90;;;;;;5075335;28;20028;-65
2021/01/24 08:49:26;;;;;;;2.45;2.00;;;6.20;99.90;;;;;;5084767;28;20538;-67
2021/01/24 08:51:59;;;;;;;3.85;1.50;;;8.40;99.70;;;;;;5080511;28;20013;-65
2021/01/24 08:54:30;;;;;;;3.63;2.05;;;9.50;95.40;;;;;;5077502;28;20037;-67
2021/01/24 08:57:34;;;;;;;2.65;1.90;;;8.00;96.40;;;;;;5078623;28;20576;-68
2021/01/24 09:00:08;;;;;;;3.00;1.65;;;6.80;99.40;;;;;;5061597;28;20037;-68
2021/01/24 09:02:36;;;;;;;4.00;3.03;;;5.70;99.90;;;;;;5084483;28;20463;-68
2021/01/24 09:05:05;;;;;;;2.42;1.60;;;5.30;99.90;;;;;;5073739;28;20078;-69
2021/01/24 09:07:37;;;;;;;3.83;1.95;;;5.00;99.90;;;;;;5071653;28;20024;-70
2021/01/24 09:10:23;;;;;;;2.58;2.25;;;6.20;99.90;;;;;;5071475;28;20024;-69
2021/01/24 09:12:50;;;;;;;2.08;1.50;;;7.50;99.90;;;;;;5048990;28;20028;-69
2021/01/24 09:15:17;;;;;;;3.90;1.92;;;6.60;99.90;;;;;;5039276;28;20032;-71
2021/01/24 09:17:43;;;;;;;1.80;1.55;;;5.80;99.90;;;;;;5053542;28;20075;-68
2021/01/24 09:20:09;;;;;;;6.40;2.58;;;5.00;99.90;;;;;;5037753;28;20408;-69
2021/01/24 09:22:35;;;;;;;3.45;1.70;;;4.70;99.90;;;;;;5034957;28;20542;-69
2021/01/24 09:25:03;;;;;;;1.92;1.73;;;4.20;99.90;;;;;;5033916;28;20163;-71
2021/01/24 09:27:28;;;;;;;3.38;1.90;;;3.40;99.90;;;;;;5034427;28;20033;-69
2021/01/24 09:29:54;;;;;;;4.90;1.92;;;3.80;99.90;;;;;;5034378;28;20025;-70
2021/01/24 09:32:21;;;;;;;3.15;1.95;;;3.90;99.90;;;;;;5034433;28;20028;-70
2021/01/24 09:34:47;;;;;;;5.35;2.63;;;4.20;99.90;;;;;;5033544;28;20036;-69
2021/01/24 09:37:12;;;;;;;3.47;2.20;;;4.20;99.90;;;;;;5033926;28;20025;-70
2021/01/24 09:39:38;;;;;;;2.50;2.20;;;4.40;99.90;;;;;;5034491;28;20623;-69
2021/01/24 09:42:05;;;;;;;3.50;2.08;;;4.30;99.90;;;;;;5033984;28;20025;-70
2021/01/24 09:44:32;;;;;;;2.58;2.00;;;4.20;99.90;;;;;;5047227;28;20052;-69
2021/01/24 09:46:58;;;;;;;5.85;2.25;;;4.10;99.90;;;;;;5073778;28;20024;-73
2021/01/24 09:49:23;;;;;;;2.50;1.83;;;4.70;99.90;;;;;;5073965;28;20382;-70
2021/01/24 09:51:49;;;;;;;1.88;1.77;;;4.40;99.90;;;;;;5073737;28;20039;-70
2021/01/24 09:54:17;;;;;;;2.53;2.33;;;3.90;99.90;;;;;;5073028;28;20021;-70
2021/01/24 09:56:42;;;;;;;2.97;1.98;;;3.90;99.90;;;;;;5073838;28;20012;-69
2021/01/24 09:59:08;;;;;;;2.55;1.63;;;3.90;99.90;;;;;;5073611;28;20497;-70
2021/01/24 10:01:34;;;;;;;2.35;1.80;;;3.70;99.90;;;;;;5061885;28;20038;-69
2021/01/24 10:04:00;;;;;;;2.13;1.92;;;3.80;99.90;;;;;;5033045;28;20022;-70
2021/01/24 10:06:25;;;;;;;1.85;1.50;;;4.20;99.90;;;;;;5033357;28;20499;-71
2021/01/24 10:08:51;;;;;;;2.38;1.70;;;5.90;99.90;;;;;;5034813;28;20049;-70
2021/01/24 10:11:18;;;;;;;2.95;1.80;;;6.40;99.90;;;;;;5035631;28;20022;-72
2021/01/24 10:13:44;;;;;;;3.05;2.00;;;5.90;99.90;;;;;;5032954;28;20045;-69
2021/01/24 10:16:10;;;;;;;9.55;2.03;;;5.40;99.90;;;;;;5032965;28;20056;-71
2021/01/24 10:18:36;;;;;;;2.55;1.80;;;4.80;99.90;;;;;;5033231;28;20040;-70
2021/01/24 10:21:01;;;;;;;3.45;2.10;;;4.70;99.90;;;;;;5033216;28;20033;-70
2021/01/24 10:23:27;;;;;;;4.30;2.08;;;4.40;99.90;;;;;;5032371;28;20511;-70
2021/01/24 10:25:55;;;;;;;3.00;2.17;;;4.40;99.90;;;;;;5033434;28;20029;-70
2021/01/24 10:28:21;;;;;;;3.97;2.28;;;4.10;99.90;;;;;;5033774;28;20022;-71
2021/01/24 10:30:47;;;;;;;2.45;1.50;;;4.10;99.90;;;;;;5033106;28;20112;-69
2021/01/24 10:33:13;;;;;;;4.47;2.15;;;4.40;99.90;;;;;;5032357;28;20185;-70
2021/01/24 10:35:40;;;;;;;3.67;1.90;;;4.50;99.90;;;;;;5032648;28;20503;-71
2021/01/24 10:38:06;;;;;;;3.42;1.92;;;4.50;99.90;;;;;;5032912;28;20025;-68
2021/01/24 10:40:32;;;;;;;4.47;2.63;;;4.00;99.90;;;;;;5033162;28;20419;-68
2021/01/24 10:42:58;;;;;;;3.30;2.72;;;4.00;99.90;;;;;;5032578;28;20056;-68
2021/01/24 10:45:24;;;;;;;8.48;2.13;;;5.30;99.90;;;;;;5061518;28;20039;-68
2021/01/24 10:47:54;;;;;;;9.13;3.70;;;7.30;99.90;;;;;;5072996;28;20086;-69
2021/01/24 10:50:19;;;;;;;1.98;1.50;;;10.20;98.80;;;;;;5073890;28;20036;-70
2021/01/24 10:52:45;;;;;;;2.42;1.35;;;10.00;96.00;;;;;;5072207;28;20078;-71
2021/01/24 10:55:12;;;;;;;2.22;1.23;;;10.80;94.60;;;;;;5072724;28;20024;-71
2021/01/24 10:57:38;;;;;;;2.85;1.58;;;9.60;94.10;;;;;;5072971;28;20025;-71
2021/01/24 11:00:05;;;;;;;3.78;1.45;;;7.90;97.40;;;;;;5073450;28;20445;-71
2021/01/24 11:02:31;;;;;;;2.50;1.40;;;7.30;99.10;;;;;;5045441;28;20040;-69
2021/01/24 11:04:57;;;;;;;1.92;1.48;;;6.00;99.90;;;;;;5032288;28;20029;-70
2021/01/24 11:07:23;;;;;;;1.75;1.27;;;5.10;99.90;;;;;;5032306;28;20369;-71
2021/01/24 11:09:49;;;;;;;3.13;1.50;;;4.40;99.90;;;;;;5032812;28;20036;-71
2021/01/24 11:12:14;;;;;;;1.77;1.58;;;4.20;99.90;;;;;;5032658;28;20388;-70
2021/01/24 11:14:42;;;;;;;2.80;1.42;;;4.20;99.90;;;;;;5032047;28;20032;-71
2021/01/24 11:17:08;;;;;;;1.65;1.55;;;4.20;99.90;;;;;;5032010;28;20068;-71
2021/01/24 11:19:35;;;;;;;2.63;1.88;;;4.20;99.90;;;;;;5032498;28;20037;-70
2021/01/24 11:22:01;;;;;;;6.22;1.70;;;4.00;99.90;;;;;;5032389;28;20021;-70
2021/01/24 11:24:27;;;;;;;5.32;1.77;;;4.00;99.90;;;;;;5031967;28;20503;-70
2021/01/24 11:26:53;;;;;;;3.38;1.60;;;4.10;99.90;;;;;;5032500;28;20113;-70
2021/01/24 11:29:19;;;;;;;2.60;1.55;;;4.00;99.90;;;;;;5034147;28;20026;-71
2021/01/24 11:31:45;;;;;;;3.55;1.70;;;3.80;99.90;;;;;;5043127;28;20507;-69
2021/01/24 11:34:11;;;;;;;5.25;1.60;;;3.70;99.90;;;;;;5052689;28;20025;-72
2021/01/24 11:36:37;;;;;;;3.58;1.50;;;3.70;99.90;;;;;;5051816;28;20367;-71
2021/01/24 11:39:04;;;;;;;2.45;1.58;;;3.70;99.90;;;;;;5052069;28;20023;-72
2021/01/24 11:41:30;;;;;;;2.85;1.45;;;3.80;99.90;;;;;;5075022;23;20090;-74
2021/01/24 11:43:55;;;;;;;4.82;1.55;;;3.70;99.90;;;;;;5062073;28;20025;-73
2021/01/24 11:46:21;;;;;;;1.92;1.30;;;3.90;99.90;;;;;;5072514;28;20099;-72
2021/01/24 11:48:47;;;;;;;2.63;1.60;;;3.80;99.90;;;;;;5072713;28;20428;-72
2021/01/24 11:51:13;;;;;;;2.40;1.50;;;3.90;99.90;;;;;;5072451;28;20028;-72
2021/01/24 11:53:39;;;;;;;2.92;1.58;;;3.70;99.90;;;;;;5071447;28;20048;-73
2021/01/24 11:56:05;;;;;;;1.27;1.10;;;3.70;99.90;;;;;;5072289;28;20494;-73
2021/01/24 11:58:31;;;;;;;1.50;1.38;;;3.80;99.90;;;;;;5073299;28;20036;-74
2021/01/24 12:00:57;;;;;;;1.67;1.55;;;3.80;99.90;;;;;;5072236;28;20024;-75
2021/01/24 12:03:22;;;;;;;3.17;1.42;;;3.80;99.90;;;;;;5072769;28;20441;-72
2021/01/24 12:05:48;;;;;;;2.88;1.50;;;3.70;99.90;;;;;;5073536;28;20113;-71
2021/01/24 12:08:14;;;;;;;4.63;1.52;;;3.70;99.90;;;;;;5073267;28;20028;-72
2021/01/24 12:10:40;;;;;;;3.95;1.67;;;3.70;99.90;;;;;;5073227;28;20104;-73
2021/01/24 12:13:06;;;;;;;1.90;1.35;;;3.60;99.90;;;;;;5054801;28;20809;-74
2021/01/24 12:15:31;;;;;;;5.13;1.20;;;3.50;99.90;;;;;;5050682;28;20017;-73
2021/01/24 12:17:57;;;;;;;2.53;1.23;;;3.50;99.90;;;;;;5050456;28;20421;-73
2021/01/24 12:20:23;;;;;;;5.72;1.48;;;3.70;99.90;;;;;;5052594;28;20379;-73
2021/01/24 12:22:49;;;;;;;1.52;1.20;;;3.90;99.90;;;;;;5050499;28;20025;-73
2021/01/24 12:25:14;;;;;;;2.05;1.20;;;4.00;99.90;;;;;;5052522;28;20028;-74
2021/01/24 12:27:40;;;;;;;1.38;1.27;;;4.00;99.90;;;;;;5052687;28;20029;-74
2021/01/24 12:30:07;;;;;;;1.30;1.20;;;4.00;99.90;;;;;;5046752;28;20029;-72
2021/01/24 12:32:33;;;;;;;1.55;1.45;;;4.00;99.90;;;;;;5052992;28;20021;-72
2021/01/24 12:34:59;;;;;;;3.55;1.50;;;4.10;99.90;;;;;;5038738;28;20080;-75
2021/01/24 12:37:24;;;;;;;4.32;1.52;;;4.10;99.90;;;;;;5047872;28;20068;-72
2021/01/24 12:39:50;;;;;;;2.20;1.40;;;4.20;99.90;;;;;;5059851;28;20086;-73
2021/01/24 12:42:19;;;;;;;1.88;1.33;;;4.20;99.90;;;;;;5052650;28;20452;-72
2021/01/24 12:44:44;;;;;;;3.67;1.80;;;4.30;99.90;;;;;;5061448;28;20032;-74
2021/01/24 12:47:10;;;;;;;1.75;1.30;;;4.30;99.90;;;;;;5082701;28;20020;-75
2021/01/24 12:49:39;;;;;;;1.95;1.38;;;4.70;99.90;;;;;;5092706;28;20047;-72
2021/01/24 12:52:06;;;;;;;2.28;1.20;;;5.00;99.90;;;;;;5082773;28;20048;-73
2021/01/24 12:54:32;;;;;;;3.40;1.50;;;4.40;99.90;;;;;;5077693;28;20021;-71
2021/01/24 12:56:58;;;;;;;2.38;1.20;;;4.10;99.90;;;;;;5075361;28;20040;-72
2021/01/24 12:59:24;;;;;;;1.38;1.00;;;4.10;99.90;;;;;;5075857;28;20033;-73
2021/01/24 13:01:52;;;;;;;2.05;1.15;;;3.80;99.90;;;;;;5075603;28;20466;-71